sensor_id;sensor_type;location;lat;lon;timestamp;temperature;humidity
21518;DHT22;61765;45.794;24.150;2022-12-20T00:03:48;3.50;84.90
21518;DHT22;61765;45.794;24.150;2022-12-20T00:11:56;3.40;85.90
21518;DHT22;61765;45.794;24.150;2022-12-20T00:20:09;3.60;86.40
21518;DHT22;61765;45.794;24.150;2022-12-20T00:28:17;3.50;86.10
21518;DHT22;61765;45.794;24.150;2022-12-20T00:36:29;3.60;85.90
21518;DHT22;61765;45.794;24.150;2022-12-20T00:44:37;3.50;85.60
21518;DHT22;61765;45.794;24.150;2022-12-20T00:52:43;3.00;87.20
21518;DHT22;61765;45.794;24.150;2022-12-20T01:00:51;2.90;86.80
21518;DHT22;61765;45.794;24.150;2022-12-20T01:08:59;3.10;86.40
21518;DHT22;61765;45.794;24.150;2022-12-20T01:17:07;3.10;86.30
21518;DHT22;61765;45.794;24.150;2022-12-20T01:25:12;3.30;86.90
21518;DHT22;61765;45.794;24.150;2022-12-20T01:33:21;3.10;86.00
21518;DHT22;61765;45.794;24.150;2022-12-20T01:41:28;3.20;86.30
21518;DHT22;61765;45.794;24.150;2022-12-20T01:49:39;3.10;85.80
21518;DHT22;61765;45.794;24.150;2022-12-20T01:57:48;3.10;86.00
21518;DHT22;61765;45.794;24.150;2022-12-20T02:06:13;3.00;85.60
21518;DHT22;61765;45.794;24.150;2022-12-20T02:14:29;3.00;84.70
21518;DHT22;61765;45.794;24.150;2022-12-20T02:22:51;2.60;85.70
21518;DHT22;61765;45.794;24.150;2022-12-20T02:31:09;2.40;88.40
21518;DHT22;61765;45.794;24.150;2022-12-20T02:39:16;2.40;86.50
21518;DHT22;61765;45.794;24.150;2022-12-20T02:47:28;1.70;87.00
21518;DHT22;61765;45.794;24.150;2022-12-20T02:55:40;2.00;86.40
21518;DHT22;61765;45.794;24.150;2022-12-20T03:03:50;2.30;86.00
21518;DHT22;61765;45.794;24.150;2022-12-20T03:11:57;2.50;86.20
21518;DHT22;61765;45.794;24.150;2022-12-20T03:20:08;2.60;85.70
21518;DHT22;61765;45.794;24.150;2022-12-20T03:28:16;2.70;84.90
21518;DHT22;61765;45.794;24.150;2022-12-20T03:36:24;2.70;84.90
21518;DHT22;61765;45.794;24.150;2022-12-20T03:44:33;2.50;84.50
21518;DHT22;61765;45.794;24.150;2022-12-20T03:52:41;2.30;84.80
21518;DHT22;61765;45.794;24.150;2022-12-20T04:00:47;1.40;84.60
21518;DHT22;61765;45.794;24.150;2022-12-20T04:09:17;1.50;85.00
21518;DHT22;61765;45.794;24.150;2022-12-20T04:17:28;0.90;86.00
21518;DHT22;61765;45.794;24.150;2022-12-20T04:25:37;1.10;84.70
21518;DHT22;61765;45.794;24.150;2022-12-20T04:33:44;1.00;84.30
21518;DHT22;61765;45.794;24.150;2022-12-20T04:41:53;1.20;84.50
21518;DHT22;61765;45.794;24.150;2022-12-20T04:49:58;1.10;84.30
21518;DHT22;61765;45.794;24.150;2022-12-20T04:58:07;1.00;85.00
21518;DHT22;61765;45.794;24.150;2022-12-20T05:06:15;1.20;85.40
21518;DHT22;61765;45.794;24.150;2022-12-20T05:14:24;1.30;85.20
21518;DHT22;61765;45.794;24.150;2022-12-20T05:22:30;1.40;85.00
21518;DHT22;61765;45.794;24.150;2022-12-20T05:30:50;1.80;85.10
21518;DHT22;61765;45.794;24.150;2022-12-20T05:38:57;1.80;85.10
21518;DHT22;61765;45.794;24.150;2022-12-20T05:47:10;2.10;84.30
21518;DHT22;61765;45.794;24.150;2022-12-20T05:55:17;1.90;83.50
21518;DHT22;61765;45.794;24.150;2022-12-20T06:03:25;1.40;83.50
21518;DHT22;61765;45.794;24.150;2022-12-20T06:11:31;1.50;83.60
21518;DHT22;61765;45.794;24.150;2022-12-20T06:19:44;1.10;84.40
21518;DHT22;61765;45.794;24.150;2022-12-20T06:27:53;1.10;83.70
21518;DHT22;61765;45.794;24.150;2022-12-20T06:36:02;0.90;83.60
21518;DHT22;61765;45.794;24.150;2022-12-20T06:44:09;1.30;82.90
21518;DHT22;61765;45.794;24.150;2022-12-20T06:52:17;1.40;82.40
21518;DHT22;61765;45.794;24.150;2022-12-20T07:00:25;1.60;82.10
21518;DHT22;61765;45.794;24.150;2022-12-20T07:08:34;1.70;81.60
21518;DHT22;61765;45.794;24.150;2022-12-20T07:16:39;2.10;81.40
21518;DHT22;61765;45.794;24.150;2022-12-20T07:24:48;2.60;80.90
21518;DHT22;61765;45.794;24.150;2022-12-20T07:32:53;2.90;80.40
21518;DHT22;61765;45.794;24.150;2022-12-20T07:41:06;2.70;81.80
21518;DHT22;61765;45.794;24.150;2022-12-20T07:49:12;3.60;80.10
21518;DHT22;61765;45.794;24.150;2022-12-20T07:57:24;4.10;79.20
21518;DHT22;61765;45.794;24.150;2022-12-20T08:05:32;5.40;77.90
21518;DHT22;61765;45.794;24.150;2022-12-20T08:13:41;6.00;74.40
21518;DHT22;61765;45.794;24.150;2022-12-20T08:21:49;6.70;73.40
21518;DHT22;61765;45.794;24.150;2022-12-20T08:29:58;7.40;72.00
21518;DHT22;61765;45.794;24.150;2022-12-20T08:38:03;8.20;70.30
21518;DHT22;61765;45.794;24.150;2022-12-20T08:46:18;9.20;68.50
21518;DHT22;61765;45.794;24.150;2022-12-20T08:54:23;10.10;66.70
21518;DHT22;61765;45.794;24.150;2022-12-20T09:02:33;10.70;65.50
21518;DHT22;61765;45.794;24.150;2022-12-20T09:10:39;12.70;62.00
21518;DHT22;61765;45.794;24.150;2022-12-20T09:18:51;14.20;58.10
21518;DHT22;61765;45.794;24.150;2022-12-20T09:27:05;15.30;55.50
21518;DHT22;61765;45.794;24.150;2022-12-20T09:35:13;16.50;54.70
21518;DHT22;61765;45.794;24.150;2022-12-20T09:43:26;16.50;53.50
21518;DHT22;61765;45.794;24.150;2022-12-20T09:51:57;15.40;54.60
21518;DHT22;61765;45.794;24.150;2022-12-20T10:00:09;14.80;55.60
21518;DHT22;61765;45.794;24.150;2022-12-20T10:08:27;15.80;54.80
21518;DHT22;61765;45.794;24.150;2022-12-20T10:16:42;17.10;51.90
21518;DHT22;61765;45.794;24.150;2022-12-20T10:24:56;14.50;53.40
21518;DHT22;61765;45.794;24.150;2022-12-20T10:33:03;12.30;57.00
21518;DHT22;61765;45.794;24.150;2022-12-20T10:41:15;10.70;59.90
21518;DHT22;61765;45.794;24.150;2022-12-20T10:49:31;10.30;62.40
21518;DHT22;61765;45.794;24.150;2022-12-20T10:57:40;9.60;63.50
21518;DHT22;61765;45.794;24.150;2022-12-20T11:05:55;9.40;64.50
21518;DHT22;61765;45.794;24.150;2022-12-20T11:14:13;9.00;64.90
21518;DHT22;61765;45.794;24.150;2022-12-20T11:22:28;9.10;65.60
21518;DHT22;61765;45.794;24.150;2022-12-20T11:30:42;8.90;66.00
21518;DHT22;61765;45.794;24.150;2022-12-20T11:38:56;8.50;66.00
21518;DHT22;61765;45.794;24.150;2022-12-20T11:47:33;8.60;66.20
21518;DHT22;61765;45.794;24.150;2022-12-20T11:55:47;8.60;65.60
21518;DHT22;61765;45.794;24.150;2022-12-20T12:04:05;8.80;65.00
21518;DHT22;61765;45.794;24.150;2022-12-20T12:12:21;9.00;64.60
21518;DHT22;61765;45.794;24.150;2022-12-20T12:20:35;8.90;64.00
21518;DHT22;61765;45.794;24.150;2022-12-20T12:28:46;8.80;63.80
21518;DHT22;61765;45.794;24.150;2022-12-20T12:37:28;9.00;64.20
21518;DHT22;61765;45.794;24.150;2022-12-20T12:45:40;9.00;64.40
21518;DHT22;61765;45.794;24.150;2022-12-20T12:53:52;9.10;64.20
21518;DHT22;61765;45.794;24.150;2022-12-20T13:02:35;9.20;64.20
21518;DHT22;61765;45.794;24.150;2022-12-20T13:11:11;9.10;63.70
21518;DHT22;61765;45.794;24.150;2022-12-20T13:19:19;9.20;64.20
21518;DHT22;61765;45.794;24.150;2022-12-20T13:27:39;9.40;64.30
21518;DHT22;61765;45.794;24.150;2022-12-20T13:44:46;9.20;64.80
21518;DHT22;61765;45.794;24.150;2022-12-20T13:52:51;9.20;64.80
21518;DHT22;61765;45.794;24.150;2022-12-20T14:01:06;9.10;65.80
21518;DHT22;61765;45.794;24.150;2022-12-20T14:09:31;9.00;67.00
21518;DHT22;61765;45.794;24.150;2022-12-20T14:17:40;8.90;67.20
21518;DHT22;61765;45.794;24.150;2022-12-20T14:25:48;8.80;67.80
21518;DHT22;61765;45.794;24.150;2022-12-20T14:34:05;8.70;68.80
21518;DHT22;61765;45.794;24.150;2022-12-20T14:42:18;8.60;69.90
21518;DHT22;61765;45.794;24.150;2022-12-20T14:50:30;8.50;71.20
21518;DHT22;61765;45.794;24.150;2022-12-20T14:58:36;8.30;71.50
21518;DHT22;61765;45.794;24.150;2022-12-20T15:06:45;8.10;72.30
21518;DHT22;61765;45.794;24.150;2022-12-20T15:14:51;7.90;73.00
21518;DHT22;61765;45.794;24.150;2022-12-20T15:22:59;7.60;73.20
21518;DHT22;61765;45.794;24.150;2022-12-20T15:31:04;7.70;74.00
21518;DHT22;61765;45.794;24.150;2022-12-20T15:39:13;7.80;74.40
21518;DHT22;61765;45.794;24.150;2022-12-20T15:47:19;7.80;75.20
21518;DHT22;61765;45.794;24.150;2022-12-20T15:55:27;7.60;75.50
21518;DHT22;61765;45.794;24.150;2022-12-20T16:03:40;7.40;76.80
21518;DHT22;61765;45.794;24.150;2022-12-20T16:11:49;7.20;77.10
21518;DHT22;61765;45.794;24.150;2022-12-20T16:19:54;7.00;76.80
21518;DHT22;61765;45.794;24.150;2022-12-20T16:28:03;7.10;76.90
21518;DHT22;61765;45.794;24.150;2022-12-20T16:36:10;7.00;76.80
21518;DHT22;61765;45.794;24.150;2022-12-20T16:44:19;6.90;77.60
21518;DHT22;61765;45.794;24.150;2022-12-20T16:52:25;6.90;77.60
21518;DHT22;61765;45.794;24.150;2022-12-20T17:00:33;7.10;77.70
21518;DHT22;61765;45.794;24.150;2022-12-20T17:08:40;7.10;78.00
21518;DHT22;61765;45.794;24.150;2022-12-20T17:17:02;7.00;78.40
21518;DHT22;61765;45.794;24.150;2022-12-20T17:25:19;6.90;79.10
21518;DHT22;61765;45.794;24.150;2022-12-20T17:33:28;6.70;79.30
21518;DHT22;61765;45.794;24.150;2022-12-20T17:41:34;6.50;79.80
21518;DHT22;61765;45.794;24.150;2022-12-20T17:49:42;6.30;79.80
21518;DHT22;61765;45.794;24.150;2022-12-20T17:57:47;6.20;80.30
21518;DHT22;61765;45.794;24.150;2022-12-20T18:05:56;5.90;80.70
21518;DHT22;61765;45.794;24.150;2022-12-20T18:14:09;5.90;80.80
21518;DHT22;61765;45.794;24.150;2022-12-20T18:22:17;5.80;80.80
21518;DHT22;61765;45.794;24.150;2022-12-20T18:30:23;5.80;81.40
21518;DHT22;61765;45.794;24.150;2022-12-20T18:38:32;5.90;80.80
21518;DHT22;61765;45.794;24.150;2022-12-20T18:46:39;5.80;80.50
21518;DHT22;61765;45.794;24.150;2022-12-20T18:54:47;6.00;80.90
21518;DHT22;61765;45.794;24.150;2022-12-20T19:02:53;6.00;80.40
21518;DHT22;61765;45.794;24.150;2022-12-20T19:11:05;5.70;82.00
21518;DHT22;61765;45.794;24.150;2022-12-20T19:19:10;5.60;81.70
21518;DHT22;61765;45.794;24.150;2022-12-20T19:27:18;5.40;81.90
21518;DHT22;61765;45.794;24.150;2022-12-20T19:35:24;5.50;81.90
21518;DHT22;61765;45.794;24.150;2022-12-20T19:43:55;5.50;82.30
21518;DHT22;61765;45.794;24.150;2022-12-20T19:52:00;5.70;81.80
21518;DHT22;61765;45.794;24.150;2022-12-20T20:00:09;5.60;81.90
21518;DHT22;61765;45.794;24.150;2022-12-20T20:08:15;5.80;81.30
21518;DHT22;61765;45.794;24.150;2022-12-20T20:16:23;5.90;80.90
21518;DHT22;61765;45.794;24.150;2022-12-20T20:24:29;5.70;80.40
21518;DHT22;61765;45.794;24.150;2022-12-20T20:32:37;5.60;80.20
21518;DHT22;61765;45.794;24.150;2022-12-20T20:40:43;5.40;80.60
21518;DHT22;61765;45.794;24.150;2022-12-20T20:48:51;5.20;81.20
21518;DHT22;61765;45.794;24.150;2022-12-20T20:56:56;5.30;80.90
21518;DHT22;61765;45.794;24.150;2022-12-20T21:05:05;5.10;81.30
21518;DHT22;61765;45.794;24.150;2022-12-20T21:13:30;4.70;82.40
21518;DHT22;61765;45.794;24.150;2022-12-20T21:21:38;4.60;82.90
21518;DHT22;61765;45.794;24.150;2022-12-20T21:29:44;4.40;83.10
21518;DHT22;61765;45.794;24.150;2022-12-20T21:37:52;4.50;83.00
21518;DHT22;61765;45.794;24.150;2022-12-20T21:45:57;4.50;83.00
21518;DHT22;61765;45.794;24.150;2022-12-20T21:54:05;4.60;82.90
21518;DHT22;61765;45.794;24.150;2022-12-20T22:02:11;4.50;83.00
21518;DHT22;61765;45.794;24.150;2022-12-20T22:10:19;4.60;83.00
21518;DHT22;61765;45.794;24.150;2022-12-20T22:18:27;4.50;82.90
21518;DHT22;61765;45.794;24.150;2022-12-20T22:26:35;4.80;82.80
21518;DHT22;61765;45.794;24.150;2022-12-20T22:34:42;4.30;83.30
21518;DHT22;61765;45.794;24.150;2022-12-20T22:42:50;4.30;83.00
21518;DHT22;61765;45.794;24.150;2022-12-20T22:50:57;4.20;83.50
21518;DHT22;61765;45.794;24.150;2022-12-20T22:59:06;4.20;83.40
21518;DHT22;61765;45.794;24.150;2022-12-20T23:07:11;4.50;83.20
21518;DHT22;61765;45.794;24.150;2022-12-20T23:15:19;4.60;83.00
21518;DHT22;61765;45.794;24.150;2022-12-20T23:23:37;3.80;85.00
21518;DHT22;61765;45.794;24.150;2022-12-20T23:31:45;4.40;84.70
21518;DHT22;61765;45.794;24.150;2022-12-20T23:39:52;4.10;83.80
21518;DHT22;61765;45.794;24.150;2022-12-20T23:48:00;4.00;83.70
21518;DHT22;61765;45.794;24.150;2022-12-20T23:56:07;3.70;84.40
